createdAt,value
2023-03-02T00:01:49.575Z,102083.63
2023-03-02T00:04:26.367Z,102091.56
2023-03-02T00:06:58.461Z,102086.34
2023-03-02T00:09:25.385Z,102096.81
2023-03-02T00:11:52.287Z,102091.56
2023-03-02T00:14:19.058Z,102091.56
2023-03-02T00:16:45.811Z,102087.16
2023-03-02T00:19:12.582Z,102095.09
2023-03-02T00:21:41.015Z,102092.47
2023-03-02T00:24:08.176Z,102082.72
2023-03-02T00:26:35.995Z,102087.97
2023-03-02T00:29:04.172Z,102085.25
2023-03-02T00:31:31.067Z,102087.81
2023-03-02T00:33:57.919Z,102084.16
2023-03-02T00:36:25.019Z,102084.06
2023-03-02T00:38:52.473Z,102079.63
2023-03-02T00:41:21.572Z,102078.66
2023-03-02T00:43:49.131Z,102081.09
2023-03-02T00:46:20.699Z,102079.22
2023-03-02T00:48:47.675Z,102079.06
2023-03-02T00:51:15.323Z,102089.44
2023-03-02T00:53:42.155Z,102084.13
2023-03-02T00:56:09.718Z,102083.97
2023-03-02T00:58:36.809Z,102094.28
2023-03-02T01:01:10.697Z,102096.78
2023-03-02T01:03:38.256Z,102087.94
2023-03-02T01:06:13.247Z,102079.13
2023-03-02T01:08:40.040Z,102090.31
2023-03-02T01:11:16.984Z,102091.06
2023-03-02T01:13:44.856Z,102089.09
2023-03-02T01:16:12.004Z,102088.19
2023-03-02T01:18:38.923Z,102083.72
2023-03-02T01:21:11.098Z,102079.19
2023-03-02T01:23:38.004Z,102076.41
2023-03-02T01:26:04.962Z,102074.53
2023-03-02T01:28:31.754Z,102070.94
2023-03-02T01:31:01.081Z,102072.56
2023-03-02T01:33:27.915Z,102072.56
2023-03-02T01:35:54.693Z,102068.13
2023-03-02T01:38:21.619Z,102067.16
2023-03-02T01:40:48.411Z,102067.00
2023-03-02T01:43:16.832Z,102067.00
2023-03-02T01:45:53.351Z,102067.81
2023-03-02T01:48:45.529Z,102069.38
2023-03-02T01:51:17.288Z,102057.81
2023-03-02T01:53:46.792Z,102062.06
2023-03-02T01:56:20.574Z,102057.56
2023-03-02T01:58:52.294Z,102058.41
2023-03-02T02:01:19.119Z,102058.16
2023-03-02T02:03:50.844Z,102051.91
2023-03-02T02:06:31.664Z,102052.72
2023-03-02T02:09:00.371Z,102046.53
2023-03-02T02:11:27.420Z,102056.06
2023-03-02T02:13:58.282Z,102052.56
2023-03-02T02:16:26.920Z,102055.97
2023-03-02T02:18:53.858Z,102060.41
2023-03-02T02:21:22.613Z,102058.59
2023-03-02T02:24:08.065Z,102057.94
2023-03-02T02:26:49.033Z,102052.09
2023-03-02T02:29:22.900Z,102050.72
2023-03-02T02:32:12.083Z,102051.13
2023-03-02T02:34:50.920Z,102048.06
2023-03-02T02:37:29.106Z,102057.22
2023-03-02T02:39:56.325Z,102055.75
2023-03-02T02:42:32.129Z,102044.81
2023-03-02T02:45:04.119Z,102049.56
2023-03-02T02:47:31.747Z,102041.97
2023-03-02T02:49:58.771Z,102039.66
2023-03-02T02:52:28.197Z,102043.41
2023-03-02T02:54:57.914Z,102031.38
2023-03-02T02:57:28.914Z,102033.34
2023-03-02T02:59:59.711Z,102036.22
2023-03-02T03:02:30.796Z,102035.50
2023-03-02T03:05:02.499Z,102032.13
2023-03-02T03:07:31.082Z,102034.00
2023-03-02T03:10:30.283Z,102019.28
2023-03-02T03:12:57.121Z,102041.25
2023-03-02T03:15:23.898Z,102036.13
2023-03-02T03:17:58.384Z,102042.41
2023-03-02T03:20:28.035Z,102039.06
2023-03-02T03:22:55.050Z,102035.59
2023-03-02T03:25:25.800Z,102032.25
2023-03-02T03:27:52.674Z,102031.50
2023-03-02T03:30:19.528Z,102029.88
2023-03-02T03:32:46.310Z,102032.59
2023-03-02T03:35:13.304Z,102037.06
2023-03-02T03:37:41.612Z,102034.53
2023-03-02T03:40:10.094Z,102037.22
2023-03-02T03:42:38.323Z,102038.06
2023-03-02T03:45:06.980Z,102051.16
2023-03-02T03:47:34.298Z,102045.91
2023-03-02T03:50:01.067Z,102037.31
2023-03-02T03:52:31.022Z,102038.13
2023-03-02T03:55:02.221Z,102047.69
2023-03-02T03:57:29.551Z,102039.03
2023-03-02T03:59:56.432Z,102049.63
2023-03-02T04:02:23.271Z,102054.16
2023-03-02T04:04:50.059Z,102040.97
2023-03-02T04:07:16.865Z,102055.06
2023-03-02T04:09:44.138Z,102053.38
2023-03-02T04:12:11.315Z,102056.91
2023-03-02T04:14:38.209Z,102050.78
2023-03-02T04:17:07.039Z,102054.19
2023-03-02T04:19:35.385Z,102046.34
2023-03-02T04:22:03.977Z,102052.50
2023-03-02T04:24:30.825Z,102053.38
2023-03-02T04:26:57.601Z,102047.25
2023-03-02T04:29:24.393Z,102049.81
2023-03-02T04:31:51.257Z,102041.09
2023-03-02T04:34:18.101Z,102039.34
2023-03-02T04:36:45.305Z,102034.09
2023-03-02T04:39:16.687Z,102036.63
2023-03-02T04:41:43.964Z,102035.72
2023-03-02T04:44:11.369Z,102034.25
2023-03-02T04:46:39.038Z,102035.97
2023-03-02T04:49:06.658Z,102035.16
2023-03-02T04:51:40.673Z,102029.81
2023-03-02T04:54:11.321Z,102035.72
2023-03-02T04:56:38.128Z,102032.16
2023-03-02T04:59:04.923Z,102032.16
2023-03-02T05:01:32.006Z,102036.63
2023-03-02T05:04:00.737Z,102028.88
2023-03-02T05:06:29.279Z,102024.59
2023-03-02T05:08:59.697Z,102024.69
2023-03-02T05:11:27.452Z,102019.44
2023-03-02T05:14:01.823Z,102023.91
2023-03-02T05:16:32.581Z,102016.06
2023-03-02T05:19:01.303Z,102030.06
2023-03-02T05:21:28.135Z,102026.53
2023-03-02T05:23:54.992Z,102027.38
2023-03-02T05:26:21.897Z,102031.78
2023-03-02T05:28:48.902Z,102029.00
2023-03-02T05:31:24.739Z,102024.78
2023-03-02T05:33:51.542Z,102029.16
2023-03-02T05:36:20.271Z,102024.91
2023-03-02T05:38:48.031Z,102033.66
2023-03-02T05:41:15.217Z,102024.81
2023-03-02T05:43:41.974Z,102026.47
2023-03-02T05:46:08.876Z,102026.47
2023-03-02T05:48:35.990Z,102021.97
2023-03-02T05:51:02.856Z,102021.06
2023-03-02T05:53:29.884Z,102019.94
2023-03-02T05:55:56.700Z,102027.88
2023-03-02T05:58:23.572Z,102027.06
2023-03-02T06:00:50.510Z,102027.88
2023-03-02T06:03:18.172Z,102039.25
2023-03-02T06:05:45.167Z,102028.69
2023-03-02T06:08:11.942Z,102040.97
2023-03-02T06:10:38.833Z,102055.06
2023-03-02T06:13:05.614Z,102049.81
2023-03-02T06:15:32.393Z,102055.19
2023-03-02T06:17:59.232Z,102061.34
2023-03-02T06:20:26.655Z,102054.44
2023-03-02T06:22:53.445Z,102056.25
2023-03-02T06:25:23.474Z,102066.00
2023-03-02T06:27:52.333Z,102063.38
2023-03-02T06:30:25.116Z,102064.19
2023-03-02T06:32:52.415Z,102065.00
2023-03-02T06:35:19.635Z,102062.38
2023-03-02T06:37:46.500Z,102067.75
2023-03-02T06:40:14.296Z,102060.91
2023-03-02T06:42:42.639Z,102063.59
2023-03-02T06:45:10.813Z,102063.59
2023-03-02T06:47:37.850Z,102073.19
2023-03-02T06:50:05.912Z,102067.13
2023-03-02T06:52:32.722Z,102065.47
2023-03-02T06:54:59.520Z,102071.69
2023-03-02T06:57:33.489Z,102068.22
2023-03-02T07:00:02.335Z,102051.47
2023-03-02T07:02:29.185Z,102057.47
2023-03-02T07:04:55.964Z,102052.22
2023-03-02T07:07:22.722Z,102058.50
2023-03-02T07:09:49.606Z,102045.50
2023-03-02T07:12:16.435Z,102043.03
2023-03-02T07:14:43.232Z,102040.56
2023-03-02T07:17:10.012Z,102035.41
2023-03-02T07:19:40.728Z,102040.72
2023-03-02T07:22:07.774Z,102049.53
2023-03-02T07:24:34.656Z,102047.81
2023-03-02T07:27:01.445Z,102046.09
2023-03-02T07:29:28.348Z,102053.16
2023-03-02T07:32:01.487Z,102047.97
2023-03-02T07:34:28.615Z,102049.78
2023-03-02T07:36:55.464Z,102048.19
2023-03-02T07:39:22.342Z,102046.47
2023-03-02T07:41:49.201Z,102047.53
2023-03-02T07:44:16.022Z,102041.31
2023-03-02T07:46:42.979Z,102039.53
2023-03-02T07:49:10.320Z,102041.19
2023-03-02T07:51:37.191Z,102050.00
2023-03-02T07:54:04.998Z,102051.81
2023-03-02T07:56:32.069Z,102046.72
2023-03-02T07:58:58.941Z,102046.03
2023-03-02T08:01:26.004Z,102045.34
2023-03-02T08:03:53.155Z,102053.31
2023-03-02T08:06:20.493Z,102047.31
2023-03-02T08:08:47.305Z,102050.00
2023-03-02T08:11:17.087Z,102051.03
2023-03-02T08:13:44.968Z,102053.84
2023-03-02T08:16:15.036Z,102058.41
2023-03-02T08:18:42.283Z,102058.53
2023-03-02T08:21:18.821Z,102050.75
2023-03-02T08:23:46.040Z,102058.75
2023-03-02T08:26:17.295Z,102055.38
2023-03-02T08:28:44.708Z,102051.13
2023-03-02T08:31:12.571Z,102051.25
2023-03-02T08:33:39.533Z,102050.56
2023-03-02T08:36:18.913Z,102056.94
2023-03-02T08:38:47.337Z,102058.97
2023-03-02T08:41:18.143Z,102051.22
2023-03-02T08:43:44.949Z,102051.31
2023-03-02T08:46:14.066Z,102053.16
2023-03-02T08:48:41.208Z,102053.16
2023-03-02T08:51:15.827Z,102048.00
2023-03-02T08:53:46.150Z,102052.34
2023-03-02T08:56:17.930Z,102055.19
2023-03-02T08:58:44.714Z,102052.56
2023-03-02T09:01:17.407Z,102044.84
2023-03-02T09:03:45.268Z,102042.28
2023-03-02T09:06:12.916Z,102052.03
2023-03-02T09:08:43.603Z,102049.47
2023-03-02T09:11:11.016Z,102053.06
2023-03-02T09:13:38.474Z,102057.63
2023-03-02T09:16:06.663Z,102048.97
2023-03-02T09:18:34.046Z,102059.66
2023-03-02T09:21:00.850Z,102058.88
2023-03-02T09:23:29.150Z,102054.59
2023-03-02T09:25:56.127Z,102064.25
2023-03-02T09:28:23.558Z,102059.91
2023-03-02T09:30:57.707Z,102063.44
2023-03-02T09:33:24.406Z,102061.56
2023-03-02T09:35:51.189Z,102066.81
2023-03-02T09:38:19.394Z,102056.31
2023-03-02T09:41:31.746Z,102059.09
2023-03-02T09:44:43.943Z,102053.25
2023-03-02T09:47:34.899Z,102050.75
2023-03-02T09:50:27.291Z,102051.19
2023-03-02T09:53:25.052Z,102043.63
2023-03-02T09:55:56.128Z,102045.72
2023-03-02T09:58:26.884Z,102045.22
2023-03-02T10:00:53.837Z,102036.84
2023-03-02T10:03:27.188Z,102041.53
2023-03-02T10:05:55.432Z,102039.25
2023-03-02T10:08:29.984Z,102041.41
2023-03-02T10:11:23.409Z,102041.69
2023-03-02T10:13:57.137Z,102047.06
2023-03-02T10:16:46.268Z,102034.78
2023-03-02T10:19:27.338Z,102044.50
2023-03-02T10:22:26.660Z,102048.09
2023-03-02T10:25:39.180Z,102040.97
2023-03-02T10:28:22.844Z,102038.41
2023-03-02T10:31:06.320Z,102045.31
2023-03-02T10:33:38.730Z,102038.50
2023-03-02T10:36:20.280Z,102030.72
2023-03-02T10:38:47.621Z,102035.16
2023-03-02T10:41:41.147Z,102029.19
2023-03-02T10:44:39.101Z,102019.81
2023-03-02T10:47:08.462Z,102023.59
2023-03-02T10:49:39.282Z,102023.06
2023-03-02T10:52:19.556Z,102019.84
2023-03-02T10:54:47.571Z,102014.84
2023-03-02T10:57:35.652Z,102025.63
2023-03-02T11:00:16.132Z,102020.56
2023-03-02T11:03:03.702Z,102012.13
2023-03-02T11:05:39.823Z,102009.84
2023-03-02T11:08:11.141Z,102012.50
2023-03-02T11:11:00.913Z,102012.69
2023-03-02T11:13:34.351Z,102012.69
2023-03-02T11:16:19.526Z,102012.75
2023-03-02T11:19:19.400Z,102005.75
2023-03-02T11:22:03.218Z,102009.31
2023-03-02T11:24:39.244Z,102004.94
2023-03-02T11:27:28.051Z,101998.69
2023-03-02T11:30:17.187Z,102006.41
2023-03-02T11:33:04.300Z,102008.88
2023-03-02T11:35:55.065Z,102014.03
2023-03-02T11:38:43.159Z,102015.78
2023-03-02T11:41:29.640Z,102007.91
2023-03-02T11:44:03.465Z,102004.41
2023-03-02T11:46:33.011Z,101998.28
2023-03-02T11:49:24.452Z,101987.00
2023-03-02T11:52:00.545Z,101997.63
2023-03-02T11:54:46.679Z,101992.59
2023-03-02T11:57:38.692Z,101980.63
2023-03-02T12:00:20.587Z,101980.97
2023-03-02T12:03:02.649Z,101976.13
2023-03-02T12:05:36.151Z,101971.97
2023-03-02T12:08:08.501Z,101975.56
2023-03-02T12:10:43.060Z,101971.22
2023-03-02T12:13:21.347Z,101980.03
2023-03-02T12:15:52.796Z,101975.56
2023-03-02T12:18:22.607Z,101972.03
2023-03-02T12:21:16.766Z,101972.91
2023-03-02T12:23:49.948Z,101971.97
2023-03-02T12:26:19.742Z,101975.38
2023-03-02T12:29:06.705Z,101976.16
2023-03-02T12:31:51.164Z,101970.88
2023-03-02T12:34:51.997Z,101969.81
2023-03-02T12:37:25.843Z,101964.56
2023-03-02T12:40:17.199Z,101953.13
2023-03-02T12:43:28.594Z,101952.38
2023-03-02T12:46:27.135Z,101959.44
2023-03-02T12:48:59.992Z,101955.06
2023-03-02T12:51:53.989Z,101945.41
2023-03-02T12:54:28.039Z,101946.28
2023-03-02T12:57:06.764Z,101941.00
2023-03-02T12:59:33.519Z,101946.13
2023-03-02T13:02:24.056Z,101941.59
2023-03-02T13:05:06.105Z,101936.13
2023-03-02T13:08:03.107Z,101937.56
2023-03-02T13:10:40.192Z,101936.53
2023-03-02T13:13:43.839Z,101933.66
2023-03-02T13:16:23.220Z,101926.66
2023-03-02T13:18:56.573Z,101931.03
2023-03-02T13:21:39.887Z,101926.69
2023-03-02T13:24:34.087Z,101924.06
2023-03-02T13:27:07.689Z,101920.56
2023-03-02T13:29:35.846Z,101917.03
2023-03-02T13:32:21.156Z,101916.19
2023-03-02T13:34:53.189Z,101910.09
2023-03-02T13:37:32.158Z,101903.19
2023-03-02T13:40:02.448Z,101897.06
2023-03-02T13:42:37.275Z,101900.63
2023-03-02T13:45:30.729Z,101898.06
2023-03-02T13:48:01.009Z,101893.69
2023-03-02T13:50:32.226Z,101888.44
2023-03-02T13:53:05.326Z,101884.00
2023-03-02T13:55:32.718Z,101885.81
2023-03-02T13:58:00.480Z,101884.91
2023-03-02T14:00:34.659Z,101880.59
2023-03-02T14:03:01.916Z,101880.56
2023-03-02T14:05:35.612Z,101878.75
2023-03-02T14:08:02.968Z,101883.28
2023-03-02T14:10:29.831Z,101875.38
2023-03-02T14:13:03.145Z,101878.13
2023-03-02T14:15:30.063Z,101875.47
2023-03-02T14:17:56.934Z,101878.13
2023-03-02T14:20:23.807Z,101875.63
2023-03-02T14:22:50.696Z,101864.13
2023-03-02T14:25:17.640Z,101872.84
2023-03-02T14:27:47.034Z,101864.03
2023-03-02T14:30:21.189Z,101867.59
2023-03-02T14:32:48.018Z,101860.44
2023-03-02T14:35:16.552Z,101863.91
2023-03-02T14:37:47.316Z,101860.38
2023-03-02T14:40:23.249Z,101857.72
2023-03-02T14:42:51.683Z,101852.53
2023-03-02T14:45:18.978Z,101847.34
2023-03-02T14:47:48.830Z,101844.66
2023-03-02T14:50:19.037Z,101849.00
2023-03-02T14:52:56.516Z,101842.00
2023-03-02T14:55:32.621Z,101834.03
2023-03-02T14:58:04.329Z,101838.38
2023-03-02T15:00:31.591Z,101831.41
2023-03-02T15:02:59.208Z,101839.28
2023-03-02T15:05:26.101Z,101839.31
2023-03-02T15:07:53.710Z,101835.09
2023-03-02T15:10:22.302Z,101835.09
2023-03-02T15:12:49.277Z,101832.41
2023-03-02T15:15:16.560Z,101836.69
2023-03-02T15:17:43.524Z,101837.50
2023-03-02T15:20:30.735Z,101833.97
2023-03-02T15:22:57.772Z,101839.19
2023-03-02T15:25:25.891Z,101835.69
2023-03-02T15:27:55.428Z,101830.41
2023-03-02T15:30:24.248Z,101832.13
2023-03-02T15:32:53.122Z,101830.34
2023-03-02T15:35:19.872Z,101828.53
2023-03-02T15:37:46.691Z,101825.91
2023-03-02T15:40:13.633Z,101813.66
2023-03-02T15:42:40.385Z,101811.09
2023-03-02T15:45:10.618Z,101815.38
2023-03-02T15:47:37.917Z,101818.84
2023-03-02T15:50:05.277Z,101817.97
2023-03-02T15:52:32.056Z,101812.72
2023-03-02T15:54:58.837Z,101818.81
2023-03-02T15:57:25.696Z,101817.09
2023-03-02T15:59:52.505Z,101813.56
2023-03-02T16:02:19.285Z,101813.56
2023-03-02T16:04:46.231Z,101817.13
2023-03-02T16:07:12.990Z,101815.44
2023-03-02T16:09:39.757Z,101809.34
2023-03-02T16:12:06.603Z,101812.00
2023-03-02T16:14:34.177Z,101809.22
2023-03-02T16:17:00.972Z,101816.13
2023-03-02T16:19:27.767Z,101813.50
2023-03-02T16:21:54.554Z,101816.03
2023-03-02T16:24:21.313Z,101822.84
2023-03-02T16:26:49.586Z,101815.69
2023-03-02T16:29:16.394Z,101822.50
2023-03-02T16:31:46.693Z,101825.97
2023-03-02T16:34:13.947Z,101821.53
2023-03-02T16:36:42.162Z,101829.44
2023-03-02T16:39:10.729Z,101828.50
2023-03-02T16:41:40.807Z,101829.41
2023-03-02T16:44:07.898Z,101836.41
2023-03-02T16:46:37.228Z,101834.69
2023-03-02T16:49:04.769Z,101831.13
2023-03-02T16:51:32.287Z,101832.03
2023-03-02T16:53:59.124Z,101836.41
2023-03-02T16:56:26.237Z,101845.22
2023-03-02T16:58:53.071Z,101854.91
2023-03-02T17:01:22.012Z,101854.06
2023-03-02T17:03:50.596Z,101860.22
2023-03-02T17:06:22.146Z,101844.47
2023-03-02T17:08:50.609Z,101850.63
2023-03-02T17:11:18.557Z,101846.25
2023-03-02T17:13:45.555Z,101852.38
2023-03-02T17:16:12.682Z,101861.13
2023-03-02T17:18:40.898Z,101851.38
2023-03-02T17:21:10.732Z,101851.34
2023-03-02T17:23:38.577Z,101844.28
2023-03-02T17:26:05.591Z,101849.47
2023-03-02T17:28:32.377Z,101858.25
2023-03-02T17:31:00.248Z,101860.88
2023-03-02T17:33:29.412Z,101856.47
2023-03-02T17:35:56.241Z,101860.81
2023-03-02T17:38:23.121Z,101855.56
2023-03-02T17:40:49.889Z,101860.88
2023-03-02T17:43:16.755Z,101858.16
2023-03-02T17:45:46.698Z,101860.78
2023-03-02T17:48:13.564Z,101860.78
2023-03-02T17:50:40.357Z,101864.25
2023-03-02T17:53:07.103Z,101860.72
2023-03-02T17:55:34.332Z,101871.16
2023-03-02T17:58:01.140Z,101871.16
2023-03-02T18:00:28.104Z,101872.94
2023-03-02T18:02:55.045Z,101874.66
2023-03-02T18:05:22.125Z,101875.44
2023-03-02T18:07:48.961Z,101871.91
2023-03-02T18:10:15.861Z,101872.88
2023-03-02T18:12:42.774Z,101878.13
2023-03-02T18:15:11.059Z,101889.47
2023-03-02T18:17:37.867Z,101887.63
2023-03-02T18:20:05.404Z,101892.00
2023-03-02T18:22:32.299Z,101893.66
2023-03-02T18:24:59.092Z,101904.25
2023-03-02T18:27:25.904Z,101893.66
2023-03-02T18:29:52.691Z,101897.97
2023-03-02T18:32:19.500Z,101897.84
2023-03-02T18:34:46.375Z,101898.69
2023-03-02T18:37:13.210Z,101903.00
2023-03-02T18:39:40.023Z,101896.78
2023-03-02T18:42:07.169Z,101906.41
2023-03-02T18:44:34.537Z,101897.63
2023-03-02T18:47:02.001Z,101899.34
2023-03-02T18:49:29.510Z,101892.41
2023-03-02T18:51:56.973Z,101883.50
2023-03-02T18:54:24.412Z,101892.19
2023-03-02T18:56:51.196Z,101893.91
2023-03-02T18:59:18.774Z,101900.84
2023-03-02T19:01:46.084Z,101898.16
2023-03-02T19:04:14.306Z,101897.97
2023-03-02T19:06:55.957Z,101893.63
2023-03-02T19:09:23.619Z,101894.38
2023-03-02T19:11:50.511Z,101888.31
2023-03-02T19:14:17.386Z,101902.34
2023-03-02T19:16:44.226Z,101904.91
2023-03-02T19:19:11.064Z,101904.78
2023-03-02T19:21:38.247Z,101914.41
2023-03-02T19:24:05.659Z,101913.31
2023-03-02T19:26:32.494Z,101919.41
2023-03-02T19:29:00.134Z,101908.78
2023-03-02T19:31:27.533Z,101914.84
2023-03-02T19:33:54.898Z,101912.03
2023-03-02T19:36:21.673Z,101908.47
2023-03-02T19:38:48.516Z,101911.09
2023-03-02T19:41:19.054Z,101913.78
2023-03-02T19:43:46.414Z,101908.47
2023-03-02T19:46:15.760Z,101908.34
2023-03-02T19:48:43.558Z,101907.41
2023-03-02T19:51:11.968Z,101910.84
2023-03-02T19:53:40.682Z,101907.25
2023-03-02T19:56:12.613Z,101905.47
2023-03-02T19:58:49.537Z,101918.66
2023-03-02T20:01:21.400Z,101911.56
2023-03-02T20:03:53.303Z,101915.19
2023-03-02T20:06:30.425Z,101909.03
2023-03-02T20:09:04.643Z,101916.09
2023-03-02T20:11:31.470Z,101910.78
2023-03-02T20:14:02.514Z,101916.09
2023-03-02T20:16:33.569Z,101922.19
2023-03-02T20:19:01.908Z,101930.84
2023-03-02T20:21:30.439Z,101929.84
2023-03-02T20:23:57.251Z,101927.91
2023-03-02T20:26:24.558Z,101931.38
2023-03-02T20:28:53.472Z,101934.81
2023-03-02T20:31:20.371Z,101926.88
2023-03-02T20:33:51.743Z,101939.09
2023-03-02T20:36:27.983Z,101932.06
2023-03-02T20:39:10.568Z,101938.22
2023-03-02T20:41:37.987Z,101937.25
2023-03-02T20:44:05.450Z,101939.81
2023-03-02T20:46:38.857Z,101946.75
2023-03-02T20:49:08.055Z,101955.44
2023-03-02T20:51:35.217Z,101951.03
2023-03-02T20:54:03.384Z,101953.63
2023-03-02T20:56:30.223Z,101944.81
2023-03-02T20:58:57.057Z,101950.91
2023-03-02T21:01:24.500Z,101947.38
2023-03-02T21:03:51.864Z,101955.25
2023-03-02T21:06:19.137Z,101960.44
2023-03-02T21:08:47.204Z,101949.91
2023-03-02T21:11:18.216Z,101951.66
2023-03-02T21:13:47.571Z,101945.53
2023-03-02T21:16:23.840Z,101945.53
2023-03-02T21:18:50.998Z,101945.44
2023-03-02T21:21:20.238Z,101937.47
2023-03-02T21:23:49.897Z,101934.75
2023-03-02T21:26:17.237Z,101937.31
2023-03-02T21:28:44.266Z,101938.91
2023-03-02T21:31:14.575Z,101944.25
2023-03-02T21:33:42.337Z,101943.34
2023-03-02T21:36:17.416Z,101945.97
2023-03-02T21:38:44.486Z,101942.38
2023-03-02T21:41:11.334Z,101945.84
2023-03-02T21:43:38.417Z,101945.69
2023-03-02T21:46:05.561Z,101946.47
2023-03-02T21:48:35.110Z,101940.19
2023-03-02T21:51:01.966Z,101942.75
2023-03-02T21:53:28.785Z,101946.97
2023-03-02T21:55:55.593Z,101939.84
2023-03-02T21:58:22.558Z,101946.81
2023-03-02T22:00:49.381Z,101945.94
2023-03-02T22:03:16.425Z,101945.06
2023-03-02T22:05:43.228Z,101943.25
2023-03-02T22:08:16.815Z,101935.31
2023-03-02T22:10:47.074Z,101938.69
2023-03-02T22:13:22.230Z,101943.88
2023-03-02T22:15:55.930Z,101938.47
2023-03-02T22:18:25.684Z,101931.34
2023-03-02T22:20:52.480Z,101935.63
2023-03-02T22:23:23.546Z,101919.91
2023-03-02T22:25:54.666Z,101925.19
2023-03-02T22:28:25.662Z,101932.19
2023-03-02T22:30:58.538Z,101932.13
2023-03-02T22:33:28.952Z,101932.13
2023-03-02T22:36:15.196Z,101919.81
2023-03-02T22:38:42.005Z,101914.50
2023-03-02T22:41:15.757Z,101914.50
2023-03-02T22:43:43.104Z,101923.06
2023-03-02T22:46:17.221Z,101918.78
2023-03-02T22:48:47.696Z,101919.75
2023-03-02T22:51:28.374Z,101923.34
2023-03-02T22:53:59.153Z,101916.44
2023-03-02T22:56:38.522Z,101920.84
2023-03-02T22:59:27.656Z,101920.91
2023-03-02T23:02:08.386Z,101919.94
2023-03-02T23:04:38.290Z,101925.28
2023-03-02T23:07:20.742Z,101927.97
2023-03-02T23:09:48.579Z,101926.16
2023-03-02T23:12:23.378Z,101927.81
2023-03-02T23:14:58.452Z,101928.59
2023-03-02T23:17:51.798Z,101925.69
2023-03-02T23:20:19.171Z,101930.88
2023-03-02T23:22:46.224Z,101919.41
2023-03-02T23:25:14.373Z,101919.38
2023-03-02T23:27:41.132Z,101908.09
2023-03-02T23:30:09.746Z,101902.06
2023-03-02T23:32:36.596Z,101901.25
2023-03-02T23:35:03.525Z,101903.06
2023-03-02T23:37:30.306Z,101894.28
2023-03-02T23:39:57.082Z,101896.97
2023-03-02T23:42:23.865Z,101900.56
2023-03-02T23:44:50.687Z,101905.97
2023-03-02T23:47:17.466Z,101891.97
2023-03-02T23:49:44.353Z,101889.31
2023-03-02T23:52:11.115Z,101894.56
2023-03-02T23:54:37.912Z,101883.09
2023-03-02T23:57:04.928Z,101885.63
2023-03-02T23:59:31.713Z,101895.09
